sensor_id;sensor_type;location;lat;lon;timestamp;pressure;altitude;pressure_sealevel;temperature;humidity
6038;BME280;3047;42.600;23.470;2023-04-29T00:02:17;93086.69;;;8.05;73.37
6038;BME280;3047;42.600;23.470;2023-04-29T00:04:45;93077.94;;;8.24;73.79
6038;BME280;3047;42.600;23.470;2023-04-29T00:07:12;93077.16;;;8.21;75.64
6038;BME280;3047;42.600;23.470;2023-04-29T00:09:40;93085.28;;;8.33;72.89
6038;BME280;3047;42.600;23.470;2023-04-29T00:12:07;93062.88;;;8.21;73.00
6038;BME280;3047;42.600;23.470;2023-04-29T00:14:34;93072.03;;;8.27;73.42
6038;BME280;3047;42.600;23.470;2023-04-29T00:17:01;93073.97;;;8.12;75.32
6038;BME280;3047;42.600;23.470;2023-04-29T00:19:28;93080.44;;;8.24;75.05
6038;BME280;3047;42.600;23.470;2023-04-29T00:21:57;93068.16;;;8.09;74.11
6038;BME280;3047;42.600;23.470;2023-04-29T00:24:24;93085.56;;;8.20;75.96
6038;BME280;3047;42.600;23.470;2023-04-29T00:26:50;93084.22;;;8.03;76.28
6038;BME280;3047;42.600;23.470;2023-04-29T00:29:17;93083.53;;;7.95;75.68
6038;BME280;3047;42.600;23.470;2023-04-29T00:31:45;93086.22;;;7.84;75.50
6038;BME280;3047;42.600;23.470;2023-04-29T00:34:11;93099.41;;;7.99;75.09
6038;BME280;3047;42.600;23.470;2023-04-29T00:36:38;93094.28;;;8.03;75.28
6038;BME280;3047;42.600;23.470;2023-04-29T00:39:06;93094.81;;;8.17;75.61
6038;BME280;3047;42.600;23.470;2023-04-29T00:41:33;93094.81;;;8.17;76.86
6038;BME280;3047;42.600;23.470;2023-04-29T00:44:00;93094.13;;;8.11;73.31
6038;BME280;3047;42.600;23.470;2023-04-29T00:46:27;93097.63;;;8.04;74.92
6038;BME280;3047;42.600;23.470;2023-04-29T00:48:53;93093.63;;;7.92;76.51
6038;BME280;3047;42.600;23.470;2023-04-29T00:51:20;93086.97;;;7.89;77.15
6038;BME280;3047;42.600;23.470;2023-04-29T00:53:47;93081.94;;;7.89;78.42
6038;BME280;3047;42.600;23.470;2023-04-29T00:56:15;93076.03;;;7.92;78.41
6038;BME280;3047;42.600;23.470;2023-04-29T00:58:45;93076.84;;;7.92;78.60
6038;BME280;3047;42.600;23.470;2023-04-29T01:01:14;93068.38;;;7.98;78.55
6038;BME280;3047;42.600;23.470;2023-04-29T01:03:41;93044.97;;;7.95;77.79
6038;BME280;3047;42.600;23.470;2023-04-29T01:06:18;93038.34;;;7.90;77.10
6038;BME280;3047;42.600;23.470;2023-04-29T01:08:53;93004.94;;;7.84;76.84
6038;BME280;3047;42.600;23.470;2023-04-29T01:11:30;93055.44;;;8.16;75.57
6038;BME280;3047;42.600;23.470;2023-04-29T01:14:01;93041.44;;;8.03;75.49
6038;BME280;3047;42.600;23.470;2023-04-29T01:16:34;93058.78;;;8.17;75.12
6038;BME280;3047;42.600;23.470;2023-04-29T01:19:11;93035.06;;;7.87;75.75
6038;BME280;3047;42.600;23.470;2023-04-29T01:21:45;93052.44;;;7.98;76.80
6038;BME280;3047;42.600;23.470;2023-04-29T01:24:14;93049.38;;;7.83;77.01
6038;BME280;3047;42.600;23.470;2023-04-29T01:26:46;93046.00;;;7.86;77.78
6038;BME280;3047;42.600;23.470;2023-04-29T01:29:26;92994.47;;;7.60;78.41
6038;BME280;3047;42.600;23.470;2023-04-29T01:32:01;93049.09;;;7.99;78.31
6038;BME280;3047;42.600;23.470;2023-04-29T01:34:33;93040.59;;;8.04;77.56
6038;BME280;3047;42.600;23.470;2023-04-29T01:37:13;93044.66;;;8.11;75.80
6038;BME280;3047;42.600;23.470;2023-04-29T01:39:45;93053.91;;;8.09;76.10
6038;BME280;3047;42.600;23.470;2023-04-29T01:42:23;93053.16;;;8.04;77.00
6038;BME280;3047;42.600;23.470;2023-04-29T01:44:54;93049.78;;;8.07;77.79
6038;BME280;3047;42.600;23.470;2023-04-29T01:47:21;93050.94;;;7.90;77.52
6038;BME280;3047;42.600;23.470;2023-04-29T01:49:48;93007.06;;;7.60;77.24
6038;BME280;3047;42.600;23.470;2023-04-29T01:52:15;93038.25;;;7.95;77.61
6038;BME280;3047;42.600;23.470;2023-04-29T01:54:41;93038.25;;;7.93;78.26
6038;BME280;3047;42.600;23.470;2023-04-29T01:57:09;93042.41;;;7.96;78.35
6038;BME280;3047;42.600;23.470;2023-04-29T01:59:36;93042.56;;;7.88;78.94
6038;BME280;3047;42.600;23.470;2023-04-29T02:02:03;93042.47;;;7.93;78.83
6038;BME280;3047;42.600;23.470;2023-04-29T02:04:29;93036.66;;;7.89;79.29
6038;BME280;3047;42.600;23.470;2023-04-29T02:06:58;93045.22;;;7.81;79.23
6038;BME280;3047;42.600;23.470;2023-04-29T02:09:24;93045.25;;;7.79;80.34
6038;BME280;3047;42.600;23.470;2023-04-29T02:11:51;93041.16;;;7.75;80.48
6038;BME280;3047;42.600;23.470;2023-04-29T02:14:19;93033.19;;;7.52;81.12
6038;BME280;3047;42.600;23.470;2023-04-29T02:16:46;93016.69;;;7.38;80.83
6038;BME280;3047;42.600;23.470;2023-04-29T02:19:13;93037.38;;;7.51;81.02
6038;BME280;3047;42.600;23.470;2023-04-29T02:21:39;93043.16;;;7.56;79.71
6038;BME280;3047;42.600;23.470;2023-04-29T02:24:06;93043.16;;;7.56;80.25
6038;BME280;3047;42.600;23.470;2023-04-29T02:26:33;93045.88;;;7.46;80.76
6038;BME280;3047;42.600;23.470;2023-04-29T02:29:00;93048.44;;;7.42;80.86
6038;BME280;3047;42.600;23.470;2023-04-29T02:31:29;93042.50;;;7.47;80.79
6038;BME280;3047;42.600;23.470;2023-04-29T02:33:56;93041.81;;;7.38;81.15
6038;BME280;3047;42.600;23.470;2023-04-29T02:36:22;93045.84;;;7.47;82.20
6038;BME280;3047;42.600;23.470;2023-04-29T02:38:49;93039.94;;;7.48;81.12
6038;BME280;3047;42.600;23.470;2023-04-29T02:41:18;93009.31;;;7.29;81.18
6038;BME280;3047;42.600;23.470;2023-04-29T02:43:45;93040.00;;;7.45;81.47
6038;BME280;3047;42.600;23.470;2023-04-29T02:46:13;93047.81;;;7.28;80.57
6038;BME280;3047;42.600;23.470;2023-04-29T02:48:41;93031.81;;;7.35;81.12
6038;BME280;3047;42.600;23.470;2023-04-29T02:51:08;93037.19;;;7.14;81.73
6038;BME280;3047;42.600;23.470;2023-04-29T02:53:35;93040.47;;;7.17;81.95
6038;BME280;3047;42.600;23.470;2023-04-29T02:56:02;93042.91;;;7.22;82.83
6038;BME280;3047;42.600;23.470;2023-04-29T02:58:29;93047.03;;;7.26;82.18
6038;BME280;3047;42.600;23.470;2023-04-29T03:00:56;93039.13;;;6.98;82.52
6038;BME280;3047;42.600;23.470;2023-04-29T03:03:23;93012.75;;;6.73;83.77
6038;BME280;3047;42.600;23.470;2023-04-29T03:05:51;93053.28;;;7.02;82.22
6038;BME280;3047;42.600;23.470;2023-04-29T03:08:17;93065.00;;;7.02;83.35
6038;BME280;3047;42.600;23.470;2023-04-29T03:10:44;93078.66;;;6.84;83.27
6038;BME280;3047;42.600;23.470;2023-04-29T03:13:11;93083.66;;;6.84;83.82
6038;BME280;3047;42.600;23.470;2023-04-29T03:15:38;93080.44;;;6.77;84.07
6038;BME280;3047;42.600;23.470;2023-04-29T03:18:05;93088.97;;;6.65;85.46
6038;BME280;3047;42.600;23.470;2023-04-29T03:20:31;93080.56;;;6.66;85.93
6038;BME280;3047;42.600;23.470;2023-04-29T03:22:59;93054.97;;;6.44;86.02
6038;BME280;3047;42.600;23.470;2023-04-29T03:25:26;93067.38;;;6.54;87.39
6038;BME280;3047;42.600;23.470;2023-04-29T03:27:53;93033.09;;;6.51;86.95
6038;BME280;3047;42.600;23.470;2023-04-29T03:30:20;93062.75;;;6.85;87.24
6038;BME280;3047;42.600;23.470;2023-04-29T03:32:47;93055.34;;;6.76;86.53
6038;BME280;3047;42.600;23.470;2023-04-29T03:35:13;93053.56;;;6.82;86.46
6038;BME280;3047;42.600;23.470;2023-04-29T03:37:40;93073.44;;;6.98;87.25
6038;BME280;3047;42.600;23.470;2023-04-29T03:40:11;93088.44;;;7.01;87.05
6038;BME280;3047;42.600;23.470;2023-04-29T03:42:38;93093.53;;;6.98;87.24
6038;BME280;3047;42.600;23.470;2023-04-29T03:45:06;93096.41;;;6.73;88.25
6038;BME280;3047;42.600;23.470;2023-04-29T03:47:33;93094.69;;;6.77;89.18
6038;BME280;3047;42.600;23.470;2023-04-29T03:50:00;93111.97;;;6.95;89.02
6038;BME280;3047;42.600;23.470;2023-04-29T03:52:27;93115.28;;;6.99;87.47
6038;BME280;3047;42.600;23.470;2023-04-29T03:54:53;93111.94;;;6.98;87.28
6038;BME280;3047;42.600;23.470;2023-04-29T03:57:21;93067.81;;;6.80;87.71
6038;BME280;3047;42.600;23.470;2023-04-29T03:59:48;93101.00;;;7.01;87.95
6038;BME280;3047;42.600;23.470;2023-04-29T04:02:15;93107.53;;;7.14;87.55
6038;BME280;3047;42.600;23.470;2023-04-29T04:04:42;93089.94;;;7.14;89.11
6038;BME280;3047;42.600;23.470;2023-04-29T04:07:09;93064.00;;;7.13;90.83
6038;BME280;3047;42.600;23.470;2023-04-29T04:09:36;93092.88;;;7.39;90.30
6038;BME280;3047;42.600;23.470;2023-04-29T04:12:03;93083.56;;;7.44;89.70
6038;BME280;3047;42.600;23.470;2023-04-29T04:14:31;93085.13;;;7.51;90.00
6038;BME280;3047;42.600;23.470;2023-04-29T04:16:58;93060.91;;;7.47;89.95
6038;BME280;3047;42.600;23.470;2023-04-29T04:19:25;93088.22;;;7.67;91.25
6038;BME280;3047;42.600;23.470;2023-04-29T04:21:53;93091.53;;;7.69;91.57
6038;BME280;3047;42.600;23.470;2023-04-29T04:24:20;93091.53;;;7.69;91.33
6038;BME280;3047;42.600;23.470;2023-04-29T04:26:46;93088.09;;;7.73;91.63
6038;BME280;3047;42.600;23.470;2023-04-29T04:29:13;93077.16;;;7.76;91.49
6038;BME280;3047;42.600;23.470;2023-04-29T04:31:41;93079.59;;;7.80;91.22
6038;BME280;3047;42.600;23.470;2023-04-29T04:34:08;93093.72;;;7.87;90.50
6038;BME280;3047;42.600;23.470;2023-04-29T04:36:35;93086.91;;;7.94;90.66
6038;BME280;3047;42.600;23.470;2023-04-29T04:39:01;93071.88;;;7.89;89.99
6038;BME280;3047;42.600;23.470;2023-04-29T04:41:28;93084.06;;;8.11;87.40
6038;BME280;3047;42.600;23.470;2023-04-29T04:43:56;93062.34;;;8.05;84.56
6038;BME280;3047;42.600;23.470;2023-04-29T04:46:23;93078.75;;;8.25;82.31
6038;BME280;3047;42.600;23.470;2023-04-29T04:48:51;93077.78;;;8.32;82.23
6038;BME280;3047;42.600;23.470;2023-04-29T04:51:18;93081.00;;;8.38;81.87
6038;BME280;3047;42.600;23.470;2023-04-29T04:53:45;93080.03;;;8.46;81.20
6038;BME280;3047;42.600;23.470;2023-04-29T04:56:11;93077.69;;;8.36;81.40
6038;BME280;3047;42.600;23.470;2023-04-29T04:58:38;93095.13;;;8.47;80.06
6038;BME280;3047;42.600;23.470;2023-04-29T05:01:05;93085.22;;;8.39;80.10
6038;BME280;3047;42.600;23.470;2023-04-29T05:03:31;93097.50;;;8.55;80.86
6038;BME280;3047;42.600;23.470;2023-04-29T05:06:00;93101.72;;;8.53;79.96
6038;BME280;3047;42.600;23.470;2023-04-29T05:08:27;93091.44;;;8.62;80.02
6038;BME280;3047;42.600;23.470;2023-04-29T05:10:53;93094.63;;;8.70;81.12
6038;BME280;3047;42.600;23.470;2023-04-29T05:13:21;93085.47;;;8.68;80.37
6038;BME280;3047;42.600;23.470;2023-04-29T05:15:47;93089.84;;;8.58;82.29
6038;BME280;3047;42.600;23.470;2023-04-29T05:18:14;93088.78;;;8.70;82.91
6038;BME280;3047;42.600;23.470;2023-04-29T05:20:41;93086.63;;;8.91;81.91
6038;BME280;3047;42.600;23.470;2023-04-29T05:23:09;93082.91;;;9.06;79.62
6038;BME280;3047;42.600;23.470;2023-04-29T05:25:35;93081.09;;;9.13;78.70
6038;BME280;3047;42.600;23.470;2023-04-29T05:28:02;93059.38;;;9.07;78.81
6038;BME280;3047;42.600;23.470;2023-04-29T05:30:29;93058.34;;;9.16;77.80
6038;BME280;3047;42.600;23.470;2023-04-29T05:32:55;93064.88;;;9.23;76.65
6038;BME280;3047;42.600;23.470;2023-04-29T05:35:23;93054.63;;;9.31;76.16
6038;BME280;3047;42.600;23.470;2023-04-29T05:37:49;93061.09;;;9.41;77.20
6038;BME280;3047;42.600;23.470;2023-04-29T05:40:17;93055.25;;;9.40;77.50
6038;BME280;3047;42.600;23.470;2023-04-29T05:42:44;93057.53;;;9.50;77.44
6038;BME280;3047;42.600;23.470;2023-04-29T05:45:11;93055.72;;;9.55;77.80
6038;BME280;3047;42.600;23.470;2023-04-29T05:47:38;93054.69;;;9.62;75.97
6038;BME280;3047;42.600;23.470;2023-04-29T05:50:05;93049.72;;;9.59;76.53
6038;BME280;3047;42.600;23.470;2023-04-29T05:52:32;93042.53;;;9.44;77.56
6038;BME280;3047;42.600;23.470;2023-04-29T05:54:59;93027.00;;;9.26;78.35
6038;BME280;3047;42.600;23.470;2023-04-29T05:57:27;93062.50;;;9.53;78.53
6038;BME280;3047;42.600;23.470;2023-04-29T05:59:53;93057.34;;;9.56;78.63
6038;BME280;3047;42.600;23.470;2023-04-29T06:02:20;93067.25;;;9.63;78.56
6038;BME280;3047;42.600;23.470;2023-04-29T06:04:47;93058.34;;;9.84;77.03
6038;BME280;3047;42.600;23.470;2023-04-29T06:07:14;93035.09;;;9.73;77.16
6038;BME280;3047;42.600;23.470;2023-04-29T06:09:41;93063.72;;;10.03;73.91
6038;BME280;3047;42.600;23.470;2023-04-29T06:12:08;93051.84;;;10.07;75.06
6038;BME280;3047;42.600;23.470;2023-04-29T06:14:36;93044.53;;;9.98;74.35
6038;BME280;3047;42.600;23.470;2023-04-29T06:17:03;93055.94;;;10.11;75.08
6038;BME280;3047;42.600;23.470;2023-04-29T06:19:30;93079.09;;;10.27;74.28
6038;BME280;3047;42.600;23.470;2023-04-29T06:21:58;93075.22;;;10.45;73.82
6038;BME280;3047;42.600;23.470;2023-04-29T06:24:24;93041.31;;;10.22;73.17
6038;BME280;3047;42.600;23.470;2023-04-29T06:26:51;93069.22;;;10.49;72.33
6038;BME280;3047;42.600;23.470;2023-04-29T06:29:18;93063.91;;;10.58;70.49
6038;BME280;3047;42.600;23.470;2023-04-29T06:31:46;93047.00;;;10.60;69.69
6038;BME280;3047;42.600;23.470;2023-04-29T06:34:13;93071.69;;;10.80;67.67
6038;BME280;3047;42.600;23.470;2023-04-29T06:36:39;93064.97;;;10.79;71.18
6038;BME280;3047;42.600;23.470;2023-04-29T06:39:06;93078.53;;;10.76;71.27
6038;BME280;3047;42.600;23.470;2023-04-29T06:41:33;93071.59;;;10.83;70.90
6038;BME280;3047;42.600;23.470;2023-04-29T06:44:01;93077.63;;;11.07;68.26
6038;BME280;3047;42.600;23.470;2023-04-29T06:46:27;93087.00;;;11.03;68.12
6038;BME280;3047;42.600;23.470;2023-04-29T06:48:55;93082.31;;;11.19;67.59
6038;BME280;3047;42.600;23.470;2023-04-29T06:51:22;93083.94;;;11.20;65.35
6038;BME280;3047;42.600;23.470;2023-04-29T06:53:49;93075.53;;;11.20;68.61
6038;BME280;3047;42.600;23.470;2023-04-29T06:56:16;93072.47;;;11.36;66.69
6038;BME280;3047;42.600;23.470;2023-04-29T06:58:43;93070.63;;;11.42;67.19
6038;BME280;3047;42.600;23.470;2023-04-29T07:01:10;93037.56;;;11.21;64.67
6038;BME280;3047;42.600;23.470;2023-04-29T07:03:36;93071.19;;;11.50;64.42
6038;BME280;3047;42.600;23.470;2023-04-29T07:06:05;93069.56;;;11.49;63.03
6038;BME280;3047;42.600;23.470;2023-04-29T07:08:31;93067.03;;;11.22;66.79
6038;BME280;3047;42.600;23.470;2023-04-29T07:10:58;93064.53;;;11.21;66.74
6038;BME280;3047;42.600;23.470;2023-04-29T07:13:25;93066.69;;;11.33;66.40
6038;BME280;3047;42.600;23.470;2023-04-29T07:15:52;93067.34;;;11.38;67.28
6038;BME280;3047;42.600;23.470;2023-04-29T07:18:18;93067.13;;;11.46;66.73
6038;BME280;3047;42.600;23.470;2023-04-29T07:20:45;93066.31;;;11.70;65.62
6038;BME280;3047;42.600;23.470;2023-04-29T07:23:13;93046.47;;;11.58;66.57
6038;BME280;3047;42.600;23.470;2023-04-29T07:25:40;93056.66;;;11.83;67.60
6038;BME280;3047;42.600;23.470;2023-04-29T07:28:07;93057.09;;;11.94;66.10
6038;BME280;3047;42.600;23.470;2023-04-29T07:30:34;93052.75;;;11.99;67.27
6038;BME280;3047;42.600;23.470;2023-04-29T07:33:01;93039.03;;;12.05;68.10
6038;BME280;3047;42.600;23.470;2023-04-29T07:35:28;93036.50;;;12.05;68.17
6038;BME280;3047;42.600;23.470;2023-04-29T07:37:55;93059.88;;;12.36;64.34
6038;BME280;3047;42.600;23.470;2023-04-29T07:40:23;93051.09;;;12.45;65.61
6038;BME280;3047;42.600;23.470;2023-04-29T07:42:50;93058.00;;;12.63;61.21
6038;BME280;3047;42.600;23.470;2023-04-29T07:45:17;93055.09;;;12.74;62.66
6038;BME280;3047;42.600;23.470;2023-04-29T07:47:44;93055.28;;;12.92;63.87
6038;BME280;3047;42.600;23.470;2023-04-29T07:50:11;93039.13;;;13.16;63.45
6038;BME280;3047;42.600;23.470;2023-04-29T07:52:38;93026.00;;;13.49;61.03
6038;BME280;3047;42.600;23.470;2023-04-29T07:55:05;93057.16;;;13.95;61.48
6038;BME280;3047;42.600;23.470;2023-04-29T07:57:33;93061.56;;;14.30;58.25
6038;BME280;3047;42.600;23.470;2023-04-29T08:00:00;93024.34;;;14.48;57.70
6038;BME280;3047;42.600;23.470;2023-04-29T08:02:27;93057.66;;;14.99;56.21
6038;BME280;3047;42.600;23.470;2023-04-29T08:04:53;93052.81;;;15.30;52.66
6038;BME280;3047;42.600;23.470;2023-04-29T08:07:21;93015.28;;;15.53;54.25
6038;BME280;3047;42.600;23.470;2023-04-29T08:09:47;93037.09;;;15.93;53.25
6038;BME280;3047;42.600;23.470;2023-04-29T08:12:14;93048.88;;;16.29;52.19
6038;BME280;3047;42.600;23.470;2023-04-29T08:14:42;93046.47;;;16.59;49.95
6038;BME280;3047;42.600;23.470;2023-04-29T08:17:09;93040.81;;;16.70;49.04
6038;BME280;3047;42.600;23.470;2023-04-29T08:19:36;93042.00;;;16.80;48.72
6038;BME280;3047;42.600;23.470;2023-04-29T08:22:02;93032.97;;;16.90;46.86
6038;BME280;3047;42.600;23.470;2023-04-29T08:24:30;93023.72;;;17.03;49.64
6038;BME280;3047;42.600;23.470;2023-04-29T08:26:58;93025.91;;;17.25;47.57
6038;BME280;3047;42.600;23.470;2023-04-29T08:29:24;93037.25;;;17.51;46.46
6038;BME280;3047;42.600;23.470;2023-04-29T08:31:52;93029.38;;;17.70;46.52
6038;BME280;3047;42.600;23.470;2023-04-29T08:34:19;93024.28;;;18.00;47.04
6038;BME280;3047;42.600;23.470;2023-04-29T08:36:46;93011.88;;;18.09;46.64
6038;BME280;3047;42.600;23.470;2023-04-29T08:39:13;93019.09;;;18.45;44.95
6038;BME280;3047;42.600;23.470;2023-04-29T08:41:40;93014.72;;;18.61;42.74
6038;BME280;3047;42.600;23.470;2023-04-29T08:44:08;93005.94;;;18.80;43.25
6038;BME280;3047;42.600;23.470;2023-04-29T08:46:35;92996.78;;;18.75;43.26
6038;BME280;3047;42.600;23.470;2023-04-29T08:49:04;93012.88;;;18.77;41.65
6038;BME280;3047;42.600;23.470;2023-04-29T08:51:31;93013.06;;;18.60;42.04
6038;BME280;3047;42.600;23.470;2023-04-29T08:53:59;93012.16;;;18.61;42.49
6038;BME280;3047;42.600;23.470;2023-04-29T08:56:26;92993.97;;;18.37;43.01
6038;BME280;3047;42.600;23.470;2023-04-29T08:58:56;93008.50;;;18.37;43.72
6038;BME280;3047;42.600;23.470;2023-04-29T09:01:26;93011.88;;;18.37;41.17
6038;BME280;3047;42.600;23.470;2023-04-29T09:03:59;92987.41;;;18.33;40.57
6038;BME280;3047;42.600;23.470;2023-04-29T09:06:31;93008.59;;;18.49;41.04
6038;BME280;3047;42.600;23.470;2023-04-29T09:08:58;93004.22;;;18.51;39.90
6038;BME280;3047;42.600;23.470;2023-04-29T09:11:26;92998.44;;;18.62;40.55
6038;BME280;3047;42.600;23.470;2023-04-29T09:13:57;92993.47;;;18.88;35.57
6038;BME280;3047;42.600;23.470;2023-04-29T09:16:24;92986.41;;;19.06;35.60
6038;BME280;3047;42.600;23.470;2023-04-29T09:18:51;92985.34;;;19.22;35.99
6038;BME280;3047;42.600;23.470;2023-04-29T09:21:20;92989.16;;;19.30;35.37
6038;BME280;3047;42.600;23.470;2023-04-29T09:23:49;92933.63;;;18.90;36.92
6038;BME280;3047;42.600;23.470;2023-04-29T09:26:16;92978.22;;;19.00;38.27
6038;BME280;3047;42.600;23.470;2023-04-29T09:28:43;92973.09;;;19.00;36.67
6038;BME280;3047;42.600;23.470;2023-04-29T09:31:12;92973.56;;;18.93;37.43
6038;BME280;3047;42.600;23.470;2023-04-29T09:33:49;92965.16;;;18.91;37.62
6038;BME280;3047;42.600;23.470;2023-04-29T09:36:34;92970.19;;;18.92;37.29
6038;BME280;3047;42.600;23.470;2023-04-29T09:39:02;92924.16;;;18.64;37.26
6038;BME280;3047;42.600;23.470;2023-04-29T09:41:30;92965.31;;;18.88;38.33
6038;BME280;3047;42.600;23.470;2023-04-29T09:44:02;92960.22;;;18.88;36.97
6038;BME280;3047;42.600;23.470;2023-04-29T09:46:31;92965.91;;;18.78;37.71
6038;BME280;3047;42.600;23.470;2023-04-29T09:48:58;92960.25;;;18.59;38.21
6038;BME280;3047;42.600;23.470;2023-04-29T09:51:24;92956.22;;;18.69;36.44
6038;BME280;3047;42.600;23.470;2023-04-29T09:53:51;92957.13;;;18.83;37.99
6038;BME280;3047;42.600;23.470;2023-04-29T09:56:19;92949.78;;;18.91;36.48
6038;BME280;3047;42.600;23.470;2023-04-29T09:58:46;92952.97;;;18.94;37.32
6038;BME280;3047;42.600;23.470;2023-04-29T10:01:13;92949.91;;;18.75;36.56
6038;BME280;3047;42.600;23.470;2023-04-29T10:03:44;92938.06;;;18.60;35.87
6038;BME280;3047;42.600;23.470;2023-04-29T10:06:12;92944.09;;;18.73;37.78
6038;BME280;3047;42.600;23.470;2023-04-29T10:08:40;92940.13;;;18.67;37.55
6038;BME280;3047;42.600;23.470;2023-04-29T10:11:09;92946.53;;;18.74;34.74
6038;BME280;3047;42.600;23.470;2023-04-29T10:13:41;92943.53;;;18.68;35.65
6038;BME280;3047;42.600;23.470;2023-04-29T10:16:16;92942.44;;;18.58;36.43
6038;BME280;3047;42.600;23.470;2023-04-29T10:18:48;92900.41;;;18.20;37.64
6038;BME280;3047;42.600;23.470;2023-04-29T10:21:18;92918.25;;;18.35;37.04
6038;BME280;3047;42.600;23.470;2023-04-29T10:23:47;92924.28;;;18.48;37.78
6038;BME280;3047;42.600;23.470;2023-04-29T10:26:16;92931.75;;;18.51;39.33
6038;BME280;3047;42.600;23.470;2023-04-29T10:28:49;92927.84;;;18.60;38.52
6038;BME280;3047;42.600;23.470;2023-04-29T10:31:18;92926.41;;;18.41;37.43
6038;BME280;3047;42.600;23.470;2023-04-29T10:33:48;92881.47;;;18.23;36.91
6038;BME280;3047;42.600;23.470;2023-04-29T10:36:16;92829.97;;;17.59;37.24
6038;BME280;3047;42.600;23.470;2023-04-29T10:38:45;92902.78;;;18.09;37.59
6038;BME280;3047;42.600;23.470;2023-04-29T10:41:18;92915.44;;;18.11;37.65
6038;BME280;3047;42.600;23.470;2023-04-29T10:43:50;92922.69;;;18.04;37.19
6038;BME280;3047;42.600;23.470;2023-04-29T10:46:18;92923.78;;;18.00;37.08
6038;BME280;3047;42.600;23.470;2023-04-29T10:48:45;92923.41;;;17.92;35.94
6038;BME280;3047;42.600;23.470;2023-04-29T10:51:13;92866.34;;;17.63;36.40
6038;BME280;3047;42.600;23.470;2023-04-29T10:54:01;92921.94;;;18.02;38.46
6038;BME280;3047;42.600;23.470;2023-04-29T10:56:36;92897.69;;;17.95;36.14
6038;BME280;3047;42.600;23.470;2023-04-29T10:59:04;92912.72;;;18.14;33.79
6038;BME280;3047;42.600;23.470;2023-04-29T11:01:46;92917.47;;;18.20;35.12
6038;BME280;3047;42.600;23.470;2023-04-29T11:04:13;92914.25;;;18.31;36.79
6038;BME280;3047;42.600;23.470;2023-04-29T11:06:43;92908.38;;;18.43;38.15
6038;BME280;3047;42.600;23.470;2023-04-29T11:09:13;92791.25;;;17.65;37.79
6038;BME280;3047;42.600;23.470;2023-04-29T11:12:00;92879.06;;;18.48;35.24
6038;BME280;3047;42.600;23.470;2023-04-29T11:14:34;92841.50;;;18.22;32.50
6038;BME280;3047;42.600;23.470;2023-04-29T11:17:07;92906.00;;;18.54;33.25
6038;BME280;3047;42.600;23.470;2023-04-29T11:19:35;92842.94;;;17.99;32.51
6038;BME280;3047;42.600;23.470;2023-04-29T11:22:14;92883.22;;;18.22;33.39
6038;BME280;3047;42.600;23.470;2023-04-29T11:24:54;92898.19;;;18.28;34.03
6038;BME280;3047;42.600;23.470;2023-04-29T11:27:23;92900.94;;;18.25;34.55
6038;BME280;3047;42.600;23.470;2023-04-29T11:29:53;92860.59;;;18.02;34.75
6038;BME280;3047;42.600;23.470;2023-04-29T11:32:24;92906.69;;;18.29;34.89
6038;BME280;3047;42.600;23.470;2023-04-29T11:34:51;92899.94;;;18.14;34.91
6038;BME280;3047;42.600;23.470;2023-04-29T11:37:20;92908.16;;;18.04;35.35
6038;BME280;3047;42.600;23.470;2023-04-29T11:39:47;92901.88;;;17.96;35.67
6038;BME280;3047;42.600;23.470;2023-04-29T11:42:18;92902.44;;;17.87;37.02
6038;BME280;3047;42.600;23.470;2023-04-29T11:44:45;92883.25;;;17.79;37.18
6038;BME280;3047;42.600;23.470;2023-04-29T11:47:13;92895.63;;;17.71;37.00
6038;BME280;3047;42.600;23.470;2023-04-29T11:49:40;92895.97;;;17.65;36.83
6038;BME280;3047;42.600;23.470;2023-04-29T11:52:07;92901.97;;;17.50;38.90
6038;BME280;3047;42.600;23.470;2023-04-29T11:54:34;92886.75;;;17.34;38.83
6038;BME280;3047;42.600;23.470;2023-04-29T11:57:01;92864.81;;;17.16;38.73
6038;BME280;3047;42.600;23.470;2023-04-29T11:59:31;92902.81;;;17.50;38.17
6038;BME280;3047;42.600;23.470;2023-04-29T12:01:58;92842.75;;;17.15;38.92
6038;BME280;3047;42.600;23.470;2023-04-29T12:04:27;92819.31;;;16.94;38.41
6038;BME280;3047;42.600;23.470;2023-04-29T12:06:56;92890.63;;;17.25;38.02
6038;BME280;3047;42.600;23.470;2023-04-29T12:09:22;92891.75;;;17.36;39.64
6038;BME280;3047;42.600;23.470;2023-04-29T12:11:49;92892.28;;;17.26;39.57
6038;BME280;3047;42.600;23.470;2023-04-29T12:14:16;92858.78;;;17.02;40.80
6038;BME280;3047;42.600;23.470;2023-04-29T12:16:44;92879.19;;;17.02;40.69
6038;BME280;3047;42.600;23.470;2023-04-29T12:19:11;92888.78;;;17.13;40.98
6038;BME280;3047;42.600;23.470;2023-04-29T12:21:48;92887.06;;;17.14;40.52
6038;BME280;3047;42.600;23.470;2023-04-29T12:24:16;92888.88;;;17.12;39.99
6038;BME280;3047;42.600;23.470;2023-04-29T12:26:44;92880.81;;;17.03;40.79
6038;BME280;3047;42.600;23.470;2023-04-29T12:29:12;92884.16;;;16.90;41.02
6038;BME280;3047;42.600;23.470;2023-04-29T12:31:38;92878.09;;;16.76;40.54
6038;BME280;3047;42.600;23.470;2023-04-29T12:34:06;92866.72;;;16.66;43.89
6038;BME280;3047;42.600;23.470;2023-04-29T12:36:33;92825.31;;;16.47;43.10
6038;BME280;3047;42.600;23.470;2023-04-29T12:39:04;92860.00;;;16.65;43.23
6038;BME280;3047;42.600;23.470;2023-04-29T12:41:37;92873.19;;;16.73;43.37
6038;BME280;3047;42.600;23.470;2023-04-29T12:44:05;92853.59;;;16.58;42.98
6038;BME280;3047;42.600;23.470;2023-04-29T12:46:35;92872.47;;;16.70;43.31
6038;BME280;3047;42.600;23.470;2023-04-29T12:49:03;92792.94;;;16.17;42.54
6038;BME280;3047;42.600;23.470;2023-04-29T12:51:31;92869.78;;;16.73;43.35
6038;BME280;3047;42.600;23.470;2023-04-29T12:53:58;92854.63;;;16.70;44.72
6038;BME280;3047;42.600;23.470;2023-04-29T12:56:27;92857.03;;;16.57;44.76
6038;BME280;3047;42.600;23.470;2023-04-29T12:58:53;92853.66;;;16.56;45.51
6038;BME280;3047;42.600;23.470;2023-04-29T13:01:20;92858.59;;;16.60;44.74
6038;BME280;3047;42.600;23.470;2023-04-29T13:03:48;92814.47;;;16.27;46.51
6038;BME280;3047;42.600;23.470;2023-04-29T13:06:15;92857.63;;;16.46;47.15
6038;BME280;3047;42.600;23.470;2023-04-29T13:08:43;92763.88;;;15.90;46.54
6038;BME280;3047;42.600;23.470;2023-04-29T13:11:09;92863.78;;;16.58;45.51
6038;BME280;3047;42.600;23.470;2023-04-29T13:13:39;92821.38;;;16.41;46.51
6038;BME280;3047;42.600;23.470;2023-04-29T13:16:06;92805.09;;;16.28;46.87
6038;BME280;3047;42.600;23.470;2023-04-29T13:18:33;92833.03;;;16.45;46.94
6038;BME280;3047;42.600;23.470;2023-04-29T13:21:00;92860.97;;;16.63;47.42